createdAt,value
2023-05-22T00:00:24.586Z,51.01
2023-05-22T00:02:52.718Z,50.70
2023-05-22T00:05:21.217Z,50.75
2023-05-22T00:07:49.269Z,50.38
2023-05-22T00:10:17.021Z,50.05
2023-05-22T00:12:45.060Z,50.20
2023-05-22T00:15:13.602Z,49.98
2023-05-22T00:17:42.327Z,49.98
2023-05-22T00:20:11.632Z,49.79
2023-05-22T00:22:39.599Z,49.82
2023-05-22T00:25:08.507Z,50.01
2023-05-22T00:27:36.985Z,49.95
2023-05-22T00:30:07.493Z,49.32
2023-05-22T00:32:35.550Z,49.01
2023-05-22T00:35:03.688Z,49.36
2023-05-22T00:37:31.335Z,48.82
2023-05-22T00:39:59.180Z,49.14
2023-05-22T00:42:27.332Z,49.18
2023-05-22T00:44:55.288Z,49.64
2023-05-22T00:47:23.913Z,49.49
2023-05-22T00:49:52.063Z,49.35
2023-05-22T00:52:19.755Z,49.35
2023-05-22T00:54:47.797Z,49.53
2023-05-22T00:57:15.293Z,49.27
2023-05-22T00:59:43.469Z,49.35
2023-05-22T01:02:11.429Z,49.16
2023-05-22T01:04:39.248Z,48.80
2023-05-22T01:07:07.007Z,49.07
2023-05-22T01:09:34.742Z,48.81
2023-05-22T01:12:30.784Z,49.29
2023-05-22T01:15:31.031Z,48.85
2023-05-22T01:18:29.320Z,49.42
2023-05-22T01:21:07.119Z,49.32
2023-05-22T01:23:34.118Z,49.68
2023-05-22T01:26:26.533Z,50.01
2023-05-22T01:29:10.505Z,49.82
2023-05-22T01:31:42.281Z,50.38
2023-05-22T01:34:11.388Z,51.00
2023-05-22T01:36:38.355Z,51.40
2023-05-22T01:39:06.834Z,51.28
2023-05-22T01:41:37.499Z,51.68
2023-05-22T01:44:05.810Z,51.85
2023-05-22T01:46:33.839Z,51.82
2023-05-22T01:49:01.820Z,51.69
2023-05-22T01:51:50.270Z,51.84
2023-05-22T01:54:42.234Z,51.80
2023-05-22T01:57:19.671Z,51.57
2023-05-22T01:59:46.642Z,51.89
2023-05-22T02:02:15.225Z,51.89
2023-05-22T02:04:44.147Z,51.84
2023-05-22T02:07:12.785Z,52.09
2023-05-22T02:09:40.619Z,52.11
2023-05-22T02:12:07.971Z,52.41
2023-05-22T02:14:35.522Z,52.03
2023-05-22T02:17:03.389Z,51.77
2023-05-22T02:19:31.605Z,51.40
2023-05-22T02:21:59.633Z,51.35
2023-05-22T02:24:27.460Z,51.46
2023-05-22T02:26:54.909Z,51.66
2023-05-22T02:29:22.977Z,52.04
2023-05-22T02:31:51.001Z,52.13
2023-05-22T02:34:19.221Z,52.16
2023-05-22T02:36:47.924Z,52.26
2023-05-22T02:39:15.818Z,52.58
2023-05-22T02:41:43.302Z,53.40
2023-05-22T02:44:11.648Z,53.72
2023-05-22T02:46:39.828Z,54.00
2023-05-22T02:49:07.989Z,53.94
2023-05-22T02:51:38.313Z,53.73
2023-05-22T02:54:06.582Z,53.71
2023-05-22T02:56:34.486Z,53.76
2023-05-22T02:59:02.386Z,53.68
2023-05-22T03:01:31.313Z,53.60
2023-05-22T03:03:59.409Z,53.69
2023-05-22T03:06:27.062Z,53.77
2023-05-22T03:08:55.048Z,53.25
2023-05-22T03:11:22.571Z,53.10
2023-05-22T03:13:50.530Z,53.69
2023-05-22T03:16:18.502Z,53.59
2023-05-22T03:18:46.534Z,53.31
2023-05-22T03:21:14.143Z,52.85
2023-05-22T03:23:42.118Z,52.65
2023-05-22T03:26:10.102Z,52.98
2023-05-22T03:28:38.094Z,52.88
2023-05-22T03:31:05.910Z,52.97
2023-05-22T03:33:33.785Z,52.58
2023-05-22T03:36:01.932Z,52.77
2023-05-22T03:38:30.072Z,52.61
2023-05-22T03:40:57.998Z,54.74
2023-05-22T03:43:25.958Z,55.46
2023-05-22T03:45:53.967Z,57.01
2023-05-22T03:48:21.834Z,59.54
2023-05-22T03:50:49.804Z,59.64
2023-05-22T03:53:18.036Z,60.08
2023-05-22T03:55:45.972Z,61.22
2023-05-22T03:58:13.886Z,60.83
2023-05-22T04:00:42.606Z,60.75
2023-05-22T04:03:13.215Z,62.31
2023-05-22T04:05:40.934Z,63.01
2023-05-22T04:08:08.903Z,63.75
2023-05-22T04:10:38.898Z,64.10
2023-05-22T04:13:07.368Z,64.41
2023-05-22T04:15:35.436Z,64.05
2023-05-22T04:18:02.973Z,62.74
2023-05-22T04:20:30.827Z,62.33
2023-05-22T04:23:00.885Z,62.29
2023-05-22T04:25:28.458Z,62.38
2023-05-22T04:27:56.484Z,61.89
2023-05-22T04:30:25.760Z,62.03
2023-05-22T04:32:53.894Z,63.34
2023-05-22T04:35:22.371Z,64.10
2023-05-22T04:37:50.293Z,65.27
2023-05-22T04:40:17.993Z,64.97
2023-05-22T04:42:45.983Z,64.85
2023-05-22T04:45:14.109Z,63.04
2023-05-22T04:47:41.715Z,64.02
2023-05-22T04:50:10.922Z,63.45
2023-05-22T04:52:38.658Z,62.82
2023-05-22T04:55:08.716Z,62.20
2023-05-22T04:57:36.278Z,61.96
2023-05-22T05:00:07.511Z,62.16
2023-05-22T05:02:35.497Z,63.47
2023-05-22T05:05:03.546Z,63.58
2023-05-22T05:07:31.811Z,62.06
2023-05-22T05:09:59.761Z,62.95
2023-05-22T05:12:27.911Z,63.42
2023-05-22T05:14:55.648Z,63.50
2023-05-22T05:17:24.103Z,64.19
2023-05-22T05:19:52.076Z,64.41
2023-05-22T05:22:20.348Z,64.94
2023-05-22T05:24:48.465Z,66.61
2023-05-22T05:27:17.815Z,65.51
2023-05-22T05:29:45.894Z,66.31
2023-05-22T05:32:14.093Z,65.96
2023-05-22T05:34:41.761Z,65.63
2023-05-22T05:37:09.986Z,66.04
2023-05-22T05:39:38.000Z,65.43
2023-05-22T05:42:06.415Z,63.94
2023-05-22T05:44:37.080Z,64.03
2023-05-22T05:47:06.439Z,64.27
2023-05-22T05:49:35.812Z,63.47
2023-05-22T05:52:04.442Z,62.59
2023-05-22T05:54:32.404Z,62.20
2023-05-22T05:57:00.700Z,61.44
2023-05-22T05:59:28.946Z,60.31
2023-05-22T06:01:56.884Z,60.32
2023-05-22T06:04:24.448Z,60.37
2023-05-22T06:06:53.246Z,60.37
2023-05-22T06:09:21.161Z,59.38
2023-05-22T06:11:49.571Z,58.92
2023-05-22T06:14:17.501Z,58.90
2023-05-22T06:16:46.012Z,57.50
2023-05-22T06:19:13.784Z,55.50
2023-05-22T06:21:44.859Z,54.54
2023-05-22T06:24:12.573Z,54.86
2023-05-22T06:26:40.717Z,54.10
2023-05-22T06:29:08.668Z,52.34
2023-05-22T06:31:39.039Z,51.76
2023-05-22T06:34:07.080Z,52.25
2023-05-22T06:36:34.883Z,51.93
2023-05-22T06:39:03.595Z,51.35
2023-05-22T06:41:32.695Z,51.55
2023-05-22T06:44:00.699Z,49.13
2023-05-22T06:46:28.954Z,48.81
2023-05-22T06:48:56.773Z,48.41
2023-05-22T06:51:24.625Z,47.45
2023-05-22T06:53:52.549Z,48.43
2023-05-22T06:56:20.534Z,47.74
2023-05-22T06:58:48.433Z,44.83
2023-05-22T07:01:16.011Z,44.29
2023-05-22T07:03:43.839Z,43.89
2023-05-22T07:06:12.569Z,44.40
2023-05-22T07:08:40.562Z,46.16
2023-05-22T07:11:08.700Z,48.47
2023-05-22T07:13:36.565Z,46.73
2023-05-22T07:16:04.950Z,44.86
2023-05-22T07:18:33.182Z,45.04
2023-05-22T07:21:01.306Z,45.30
2023-05-22T07:23:29.372Z,43.98
2023-05-22T07:25:57.367Z,44.23
2023-05-22T07:28:24.834Z,43.50
2023-05-22T07:30:52.521Z,43.38
2023-05-22T07:33:20.518Z,43.86
2023-05-22T07:35:48.579Z,44.42
2023-05-22T07:38:16.504Z,43.38
2023-05-22T07:40:44.388Z,43.81
2023-05-22T07:43:19.528Z,42.64
2023-05-22T07:45:48.017Z,43.26
2023-05-22T07:48:16.067Z,43.88
2023-05-22T07:50:45.582Z,42.73
2023-05-22T07:53:13.931Z,42.72
2023-05-22T07:55:41.797Z,43.36
2023-05-22T07:58:10.884Z,42.34
2023-05-22T08:00:42.578Z,41.23
2023-05-22T08:03:10.287Z,41.86
2023-05-22T08:05:38.153Z,39.14
2023-05-22T08:08:05.797Z,40.72
2023-05-22T08:10:52.224Z,38.85
2023-05-22T08:13:22.995Z,39.33
2023-05-22T08:15:50.864Z,39.85
2023-05-22T08:18:29.618Z,37.70
2023-05-22T08:20:57.183Z,38.24
2023-05-22T08:23:25.337Z,37.28
2023-05-22T08:25:53.461Z,38.37
2023-05-22T08:28:21.360Z,38.56
2023-05-22T08:30:49.298Z,37.94
2023-05-22T08:33:18.170Z,39.65
2023-05-22T08:35:46.167Z,38.77
2023-05-22T08:38:13.623Z,38.73
2023-05-22T08:40:43.963Z,38.30
2023-05-22T08:43:14.043Z,37.65
2023-05-22T08:45:42.637Z,38.50
2023-05-22T08:48:10.313Z,36.20
2023-05-22T08:50:40.118Z,36.73
2023-05-22T08:53:08.373Z,37.91
2023-05-22T08:55:36.729Z,38.01
2023-05-22T08:58:04.266Z,38.32
2023-05-22T09:00:32.284Z,39.06
2023-05-22T09:03:00.462Z,37.57
2023-05-22T09:05:28.420Z,38.54
2023-05-22T09:07:58.341Z,37.53
2023-05-22T09:10:30.827Z,38.59
2023-05-22T09:13:30.703Z,37.65
2023-05-22T09:16:01.275Z,38.02
2023-05-22T09:18:29.783Z,38.10
2023-05-22T09:21:03.717Z,37.62
2023-05-22T09:23:34.959Z,37.67
2023-05-22T09:26:03.292Z,37.51
2023-05-22T09:28:35.315Z,38.86
2023-05-22T09:31:04.394Z,37.45
2023-05-22T09:33:32.413Z,37.83
2023-05-22T09:35:59.625Z,37.57
2023-05-22T09:38:32.173Z,36.95
2023-05-22T09:41:01.108Z,36.90
2023-05-22T09:43:28.968Z,36.89
2023-05-22T09:46:01.069Z,37.25
2023-05-22T09:48:29.024Z,37.19
2023-05-22T09:50:56.756Z,35.47
2023-05-22T09:53:48.087Z,36.19
2023-05-22T09:56:19.223Z,35.38
2023-05-22T09:58:53.026Z,36.00
2023-05-22T10:01:22.460Z,34.15
2023-05-22T10:03:50.521Z,35.07
2023-05-22T10:06:18.539Z,35.12
2023-05-22T10:08:49.594Z,34.48
2023-05-22T10:11:17.418Z,35.18
2023-05-22T10:13:47.653Z,35.66
2023-05-22T10:16:16.828Z,35.44
2023-05-22T10:18:47.760Z,36.23
2023-05-22T10:21:22.810Z,35.55
2023-05-22T10:23:51.689Z,35.39
2023-05-22T10:26:20.147Z,35.06
2023-05-22T10:28:56.179Z,35.47
2023-05-22T10:31:42.467Z,35.14
2023-05-22T10:34:12.526Z,34.86
2023-05-22T10:36:48.267Z,35.37
2023-05-22T10:39:43.133Z,34.93
2023-05-22T10:42:14.171Z,35.17
2023-05-22T10:44:41.859Z,36.39
2023-05-22T10:47:30.236Z,36.35
2023-05-22T10:50:12.196Z,35.33
2023-05-22T10:52:40.049Z,35.33
2023-05-22T10:55:12.830Z,35.43
2023-05-22T10:57:40.689Z,35.50
2023-05-22T11:00:19.330Z,34.58
2023-05-22T11:02:46.960Z,34.64
2023-05-22T11:05:20.054Z,34.73
2023-05-22T11:07:49.139Z,34.36
2023-05-22T11:10:26.204Z,35.00
2023-05-22T11:13:15.445Z,34.39
2023-05-22T11:15:49.310Z,36.38
2023-05-22T11:18:17.301Z,34.61
2023-05-22T11:20:47.255Z,33.68
2023-05-22T11:23:14.441Z,31.99
2023-05-22T11:25:42.214Z,33.47
2023-05-22T11:28:11.502Z,34.42
2023-05-22T11:30:39.072Z,34.17
2023-05-22T11:33:06.788Z,33.93
2023-05-22T11:35:34.423Z,32.53
2023-05-22T11:38:03.660Z,31.94
2023-05-22T11:40:31.984Z,30.91
2023-05-22T11:42:59.504Z,31.62
2023-05-22T11:45:27.080Z,32.37
2023-05-22T11:47:55.050Z,30.14
2023-05-22T11:50:33.479Z,30.20
2023-05-22T11:53:09.528Z,28.62
2023-05-22T11:55:37.623Z,28.04
2023-05-22T11:58:05.559Z,27.90
2023-05-22T12:00:33.835Z,27.69
2023-05-22T12:03:02.074Z,27.28
2023-05-22T12:05:32.406Z,26.05
2023-05-22T12:08:00.415Z,25.19
2023-05-22T12:10:28.318Z,25.72
2023-05-22T12:12:55.452Z,25.26
2023-05-22T12:15:23.934Z,25.40
2023-05-22T12:17:54.930Z,24.80
2023-05-22T12:20:23.247Z,23.84
2023-05-22T12:22:50.859Z,23.52
2023-05-22T12:25:18.359Z,21.43
2023-05-22T12:27:46.115Z,22.54
2023-05-22T12:30:15.456Z,21.78
2023-05-22T12:32:47.711Z,20.07
2023-05-22T12:35:19.229Z,19.59
2023-05-22T12:38:13.668Z,19.12
2023-05-22T12:40:42.025Z,18.37
2023-05-22T12:43:10.543Z,19.39
2023-05-22T12:45:38.112Z,18.50
2023-05-22T12:48:06.190Z,18.62
2023-05-22T12:50:34.066Z,18.54
2023-05-22T12:53:22.557Z,18.14
2023-05-22T12:55:50.138Z,18.35
2023-05-22T12:58:18.408Z,17.82
2023-05-22T13:00:45.891Z,18.15
2023-05-22T13:03:13.726Z,17.14
2023-05-22T13:05:42.055Z,18.40
2023-05-22T13:08:10.708Z,18.05
2023-05-22T13:10:38.566Z,16.82
2023-05-22T13:13:06.574Z,16.94
2023-05-22T13:15:34.440Z,16.92
2023-05-22T13:18:02.591Z,17.28
2023-05-22T13:20:30.684Z,16.80
2023-05-22T13:22:58.609Z,16.88
2023-05-22T13:25:26.232Z,16.42
2023-05-22T13:27:54.195Z,16.52
2023-05-22T13:30:22.101Z,16.37
2023-05-22T13:32:49.661Z,15.97
2023-05-22T13:35:19.881Z,15.32
2023-05-22T13:37:47.190Z,15.49
2023-05-22T13:40:15.995Z,15.17
2023-05-22T13:42:43.540Z,15.28
2023-05-22T13:45:13.101Z,14.35
2023-05-22T13:47:41.063Z,14.83
2023-05-22T13:50:11.176Z,14.85
2023-05-22T13:52:38.870Z,14.92
2023-05-22T13:55:08.257Z,14.64
2023-05-22T13:57:37.134Z,13.87
2023-05-22T14:00:06.406Z,13.57
2023-05-22T14:02:34.557Z,13.45
2023-05-22T14:05:02.258Z,13.68
2023-05-22T14:07:30.196Z,13.21
2023-05-22T14:10:01.081Z,13.70
2023-05-22T14:12:28.686Z,13.46
2023-05-22T14:14:56.598Z,13.29
2023-05-22T14:17:25.134Z,13.13
2023-05-22T14:19:53.042Z,13.51
2023-05-22T14:22:20.916Z,13.37
2023-05-22T14:24:48.760Z,12.68
2023-05-22T14:27:16.741Z,13.41
2023-05-22T14:29:48.288Z,12.88
2023-05-22T14:32:16.300Z,13.00
2023-05-22T14:34:44.045Z,12.59
2023-05-22T14:37:12.341Z,12.49
2023-05-22T14:39:40.396Z,12.88
2023-05-22T14:42:09.006Z,13.18
2023-05-22T14:44:36.575Z,12.94
2023-05-22T14:47:04.620Z,13.26
2023-05-22T14:49:32.630Z,13.89
2023-05-22T14:52:00.188Z,15.50
2023-05-22T14:54:27.740Z,16.14
2023-05-22T14:56:56.208Z,17.56
2023-05-22T14:59:24.697Z,18.52
2023-05-22T15:01:52.543Z,19.45
2023-05-22T15:04:20.104Z,19.63
2023-05-22T15:06:47.729Z,20.09
2023-05-22T15:09:15.481Z,20.32
2023-05-22T15:11:45.854Z,20.38
2023-05-22T15:14:13.688Z,19.86
2023-05-22T15:16:41.681Z,20.97
2023-05-22T15:19:09.529Z,21.11
2023-05-22T15:21:37.700Z,20.46
2023-05-22T15:24:06.622Z,19.80
2023-05-22T15:26:34.597Z,20.32
2023-05-22T15:29:02.283Z,20.86
2023-05-22T15:31:30.729Z,20.30
2023-05-22T15:33:58.733Z,20.12
2023-05-22T15:36:27.849Z,21.93
2023-05-22T15:38:55.480Z,22.03
2023-05-22T15:41:23.090Z,22.52
2023-05-22T15:43:52.230Z,22.87
2023-05-22T15:46:20.553Z,23.29
2023-05-22T15:48:48.181Z,23.14
2023-05-22T15:51:16.075Z,22.78
2023-05-22T15:53:43.997Z,22.59
2023-05-22T15:56:12.305Z,22.82
2023-05-22T15:58:40.246Z,23.15
2023-05-22T16:01:12.320Z,22.98
2023-05-22T16:03:40.470Z,23.85
2023-05-22T16:06:08.326Z,23.81
2023-05-22T16:08:35.950Z,23.96
2023-05-22T16:11:03.690Z,24.70
2023-05-22T16:13:30.865Z,24.96
2023-05-22T16:15:58.443Z,24.51
2023-05-22T16:18:25.912Z,25.34
2023-05-22T16:20:53.673Z,25.42
2023-05-22T16:23:21.193Z,25.89
2023-05-22T16:25:50.798Z,24.98
2023-05-22T16:28:18.922Z,25.88
2023-05-22T16:30:46.928Z,26.87
2023-05-22T16:33:14.872Z,25.65
2023-05-22T16:35:46.905Z,26.34
2023-05-22T16:38:15.080Z,25.88
2023-05-22T16:40:43.014Z,25.26
2023-05-22T16:43:10.836Z,25.25
2023-05-22T16:45:39.496Z,26.36
2023-05-22T16:48:08.658Z,25.81
2023-05-22T16:50:36.247Z,24.96
2023-05-22T16:53:04.548Z,23.95
2023-05-22T16:55:32.597Z,23.05
2023-05-22T16:58:00.563Z,24.47
2023-05-22T17:00:28.376Z,24.96
2023-05-22T17:02:56.560Z,25.21
2023-05-22T17:05:24.743Z,25.23
2023-05-22T17:07:52.813Z,25.69
2023-05-22T17:10:20.898Z,26.85
2023-05-22T17:12:48.825Z,26.66
2023-05-22T17:15:16.778Z,26.66
2023-05-22T17:17:44.478Z,26.75
2023-05-22T17:20:13.333Z,26.70
2023-05-22T17:22:41.390Z,26.77
2023-05-22T17:25:11.171Z,27.03
2023-05-22T17:27:39.234Z,26.92
2023-05-22T17:30:09.761Z,26.98
2023-05-22T17:32:37.947Z,27.42
2023-05-22T17:35:07.804Z,26.87
2023-05-22T17:37:34.940Z,26.96
2023-05-22T17:40:02.389Z,26.82
2023-05-22T17:42:30.128Z,26.77
2023-05-22T17:44:58.159Z,26.91
2023-05-22T17:47:26.100Z,27.62
2023-05-22T17:49:53.781Z,28.23
2023-05-22T17:52:21.367Z,28.55
2023-05-22T17:54:50.073Z,28.61
2023-05-22T17:57:18.322Z,28.55
2023-05-22T17:59:46.315Z,28.43
2023-05-22T18:02:14.001Z,28.38
2023-05-22T18:04:41.727Z,28.59
2023-05-22T18:07:09.998Z,29.05
2023-05-22T18:09:37.927Z,29.55
2023-05-22T18:12:08.099Z,29.99
2023-05-22T18:14:37.109Z,30.68
2023-05-22T18:17:12.092Z,31.40
2023-05-22T18:19:40.459Z,31.68
2023-05-22T18:22:08.633Z,32.43
2023-05-22T18:24:38.197Z,32.48
2023-05-22T18:27:06.667Z,33.51
2023-05-22T18:29:34.267Z,33.67
2023-05-22T18:32:02.251Z,34.86
2023-05-22T18:34:30.228Z,35.06
2023-05-22T18:36:59.570Z,35.89
2023-05-22T18:39:27.210Z,36.63
2023-05-22T18:41:55.049Z,37.30
2023-05-22T18:44:23.377Z,37.67
2023-05-22T18:46:50.651Z,38.22
2023-05-22T18:49:18.637Z,38.93
2023-05-22T18:51:46.524Z,39.71
2023-05-22T18:54:14.547Z,40.13
2023-05-22T18:56:42.486Z,41.11
2023-05-22T18:59:10.418Z,42.33
2023-05-22T19:01:38.766Z,44.26
2023-05-22T19:04:10.072Z,44.94
2023-05-22T19:06:38.060Z,45.67
2023-05-22T19:09:05.817Z,45.76
2023-05-22T19:11:33.558Z,46.16
2023-05-22T19:14:01.031Z,45.68
2023-05-22T19:16:28.666Z,46.81
2023-05-22T19:18:56.841Z,47.48
2023-05-22T19:21:26.392Z,47.37
2023-05-22T19:23:54.581Z,47.02
2023-05-22T19:26:22.128Z,46.27
2023-05-22T19:28:50.077Z,46.30
2023-05-22T19:31:18.395Z,45.78
2023-05-22T19:33:46.322Z,46.16
2023-05-22T19:36:13.900Z,46.52
2023-05-22T19:38:42.488Z,49.26
2023-05-22T19:41:10.485Z,49.71
2023-05-22T19:43:38.026Z,50.15
2023-05-22T19:46:08.561Z,50.96
2023-05-22T19:48:36.603Z,52.33
2023-05-22T19:51:05.222Z,54.42
2023-05-22T19:53:32.922Z,54.59
2023-05-22T19:56:05.343Z,53.31
2023-05-22T19:58:33.044Z,53.17
2023-05-22T20:01:00.868Z,53.78
2023-05-22T20:03:28.893Z,52.47
2023-05-22T20:05:56.657Z,53.41
2023-05-22T20:08:25.560Z,54.31
2023-05-22T20:10:53.376Z,56.09
2023-05-22T20:13:21.324Z,57.60
2023-05-22T20:15:51.201Z,58.27
2023-05-22T20:18:19.258Z,58.30
2023-05-22T20:20:47.574Z,57.08
2023-05-22T20:23:16.174Z,58.24
2023-05-22T20:25:43.743Z,57.14
2023-05-22T20:28:11.830Z,55.82
2023-05-22T20:30:39.714Z,55.43
2023-05-22T20:33:07.477Z,57.22
2023-05-22T20:35:35.517Z,54.77
2023-05-22T20:38:03.508Z,55.21
2023-05-22T20:40:35.075Z,54.69
2023-05-22T20:43:02.985Z,54.29
2023-05-22T20:45:31.102Z,54.33
2023-05-22T20:47:58.776Z,54.12
2023-05-22T20:50:26.614Z,54.26
2023-05-22T20:52:54.710Z,55.08
2023-05-22T20:55:22.670Z,55.91
2023-05-22T20:57:50.504Z,55.89
2023-05-22T21:00:19.204Z,56.27
2023-05-22T21:02:47.235Z,56.36
2023-05-22T21:05:14.776Z,56.09
2023-05-22T21:07:42.220Z,55.28
2023-05-22T21:10:12.484Z,55.98
2023-05-22T21:12:40.486Z,56.77
2023-05-22T21:15:09.849Z,58.42
2023-05-22T21:17:37.697Z,59.74
2023-05-22T21:20:07.051Z,59.98
2023-05-22T21:22:35.000Z,59.31
2023-05-22T21:25:02.997Z,58.54
2023-05-22T21:27:31.031Z,60.32
2023-05-22T21:29:59.015Z,61.50
2023-05-22T21:32:27.186Z,61.85
2023-05-22T21:34:55.167Z,61.68
2023-05-22T21:37:22.628Z,60.80
2023-05-22T21:40:10.438Z,59.83
2023-05-22T21:42:46.730Z,58.33
2023-05-22T21:45:15.089Z,58.42
2023-05-22T21:50:18.856Z,58.77
2023-05-22T21:52:46.843Z,58.63
2023-05-22T21:55:15.206Z,58.49
2023-05-22T21:57:42.801Z,57.54
2023-05-22T22:00:16.169Z,57.56
2023-05-22T22:02:44.213Z,56.60
2023-05-22T22:05:11.881Z,56.46
2023-05-22T22:07:39.824Z,58.18
2023-05-22T22:10:09.472Z,57.85
2023-05-22T22:12:37.626Z,58.32
2023-05-22T22:15:07.399Z,58.48
2023-05-22T22:17:35.313Z,57.44
2023-05-22T22:20:03.366Z,57.28
2023-05-22T22:22:31.010Z,56.95
2023-05-22T22:24:59.311Z,57.49
2023-05-22T22:27:26.975Z,56.86
2023-05-22T22:29:54.690Z,57.00
2023-05-22T22:32:22.527Z,57.30
2023-05-22T22:34:53.863Z,57.22
2023-05-22T22:37:22.064Z,57.38
2023-05-22T22:39:50.178Z,58.29
2023-05-22T22:42:18.350Z,58.48
2023-05-22T22:44:45.847Z,57.75
2023-05-22T22:47:13.916Z,57.28
2023-05-22T22:49:42.459Z,56.44
2023-05-22T22:52:09.635Z,56.13
2023-05-22T22:54:37.813Z,56.40
2023-05-22T22:57:06.799Z,56.64
2023-05-22T22:59:35.660Z,56.71
2023-05-22T23:02:04.193Z,56.44
2023-05-22T23:04:32.285Z,56.79
2023-05-22T23:06:59.992Z,56.83
2023-05-22T23:09:28.037Z,57.53
2023-05-22T23:11:56.177Z,58.47
2023-05-22T23:14:24.846Z,58.54
2023-05-22T23:16:52.734Z,58.67
2023-05-22T23:19:21.029Z,60.32
2023-05-22T23:21:48.802Z,60.73
2023-05-22T23:24:16.734Z,60.50
2023-05-22T23:26:44.701Z,60.76
2023-05-22T23:29:12.550Z,61.83
2023-05-22T23:31:40.592Z,63.01
2023-05-22T23:34:09.055Z,62.96
2023-05-22T23:36:36.922Z,61.92
2023-05-22T23:39:05.174Z,61.17
2023-05-22T23:41:33.475Z,60.58
2023-05-22T23:44:02.183Z,60.94
2023-05-22T23:46:30.274Z,60.89
2023-05-22T23:48:57.968Z,60.21
2023-05-22T23:51:26.073Z,60.42
2023-05-22T23:53:54.156Z,60.22
2023-05-22T23:56:21.820Z,60.25
2023-05-22T23:58:49.870Z,61.21
